sensor_id;sensor_type;location;lat;lon;timestamp;P1;durP1;ratioP1;P2;durP2;ratioP2
29362;SDS011;16349;53.672;10.014;2023-10-09T00:01:42;2.43;;;1.57;;
29362;SDS011;16349;53.672;10.014;2023-10-09T00:04:11;3.33;;;1.70;;
29362;SDS011;16349;53.672;10.014;2023-10-09T00:06:40;1.77;;;1.40;;
29362;SDS011;16349;53.672;10.014;2023-10-09T00:09:08;4.27;;;1.70;;
29362;SDS011;16349;53.672;10.014;2023-10-09T00:11:55;1.87;;;1.43;;
29362;SDS011;16349;53.672;10.014;2023-10-09T00:14:23;7.23;;;1.90;;
29362;SDS011;16349;53.672;10.014;2023-10-09T00:16:50;2.20;;;1.97;;
29362;SDS011;16349;53.672;10.014;2023-10-09T00:19:23;3.93;;;1.90;;
29362;SDS011;16349;53.672;10.014;2023-10-09T00:21:56;1.67;;;1.57;;
29362;SDS011;16349;53.672;10.014;2023-10-09T00:24:29;3.20;;;2.03;;
29362;SDS011;16349;53.672;10.014;2023-10-09T00:26:58;5.63;;;1.70;;
29362;SDS011;16349;53.672;10.014;2023-10-09T00:29:37;4.50;;;1.53;;
29362;SDS011;16349;53.672;10.014;2023-10-09T00:32:10;4.23;;;1.57;;
29362;SDS011;16349;53.672;10.014;2023-10-09T00:34:48;2.90;;;1.90;;
29362;SDS011;16349;53.672;10.014;2023-10-09T00:37:17;3.07;;;1.53;;
29362;SDS011;16349;53.672;10.014;2023-10-09T00:39:48;3.13;;;1.40;;
29362;SDS011;16349;53.672;10.014;2023-10-09T00:42:21;4.10;;;1.77;;
29362;SDS011;16349;53.672;10.014;2023-10-09T00:44:52;4.23;;;1.33;;
29362;SDS011;16349;53.672;10.014;2023-10-09T00:47:21;4.70;;;1.40;;
29362;SDS011;16349;53.672;10.014;2023-10-09T00:49:52;4.20;;;1.60;;
29362;SDS011;16349;53.672;10.014;2023-10-09T00:52:27;1.70;;;1.47;;
29362;SDS011;16349;53.672;10.014;2023-10-09T00:54:58;2.87;;;1.60;;
29362;SDS011;16349;53.672;10.014;2023-10-09T00:57:33;4.07;;;1.57;;
29362;SDS011;16349;53.672;10.014;2023-10-09T01:00:06;3.67;;;1.67;;
29362;SDS011;16349;53.672;10.014;2023-10-09T01:02:48;2.97;;;1.77;;
29362;SDS011;16349;53.672;10.014;2023-10-09T01:05:17;3.23;;;1.73;;
29362;SDS011;16349;53.672;10.014;2023-10-09T01:07:49;2.43;;;1.70;;
29362;SDS011;16349;53.672;10.014;2023-10-09T01:10:23;1.97;;;1.57;;
29362;SDS011;16349;53.672;10.014;2023-10-09T01:12:58;2.07;;;1.37;;
29362;SDS011;16349;53.672;10.014;2023-10-09T01:15:25;4.20;;;1.40;;
29362;SDS011;16349;53.672;10.014;2023-10-09T01:18:08;4.70;;;1.77;;
29362;SDS011;16349;53.672;10.014;2023-10-09T01:20:36;3.87;;;1.57;;
29362;SDS011;16349;53.672;10.014;2023-10-09T01:23:09;6.83;;;1.63;;
29362;SDS011;16349;53.672;10.014;2023-10-09T01:25:37;1.90;;;1.40;;
29362;SDS011;16349;53.672;10.014;2023-10-09T01:28:14;2.20;;;1.37;;
29362;SDS011;16349;53.672;10.014;2023-10-09T01:30:44;2.43;;;1.57;;
29362;SDS011;16349;53.672;10.014;2023-10-09T01:33:12;1.43;;;1.20;;
29362;SDS011;16349;53.672;10.014;2023-10-09T01:35:48;2.77;;;1.47;;
29362;SDS011;16349;53.672;10.014;2023-10-09T01:38:18;1.30;;;1.20;;
29362;SDS011;16349;53.672;10.014;2023-10-09T01:40:55;2.37;;;1.50;;
29362;SDS011;16349;53.672;10.014;2023-10-09T01:43:32;3.30;;;1.13;;
29362;SDS011;16349;53.672;10.014;2023-10-09T01:46:01;1.67;;;1.30;;
29362;SDS011;16349;53.672;10.014;2023-10-09T01:48:29;5.43;;;1.60;;
29362;SDS011;16349;53.672;10.014;2023-10-09T01:51:00;2.33;;;1.40;;
29362;SDS011;16349;53.672;10.014;2023-10-09T01:53:31;1.93;;;1.30;;
29362;SDS011;16349;53.672;10.014;2023-10-09T01:56:07;3.50;;;1.40;;
29362;SDS011;16349;53.672;10.014;2023-10-09T01:58:40;1.77;;;1.00;;
29362;SDS011;16349;53.672;10.014;2023-10-09T02:01:08;2.67;;;1.53;;
29362;SDS011;16349;53.672;10.014;2023-10-09T02:03:35;1.30;;;1.20;;
29362;SDS011;16349;53.672;10.014;2023-10-09T02:06:03;2.43;;;1.60;;
29362;SDS011;16349;53.672;10.014;2023-10-09T02:08:51;2.90;;;1.50;;
29362;SDS011;16349;53.672;10.014;2023-10-09T02:11:19;4.27;;;1.47;;
29362;SDS011;16349;53.672;10.014;2023-10-09T02:13:50;7.80;;;1.50;;
29362;SDS011;16349;53.672;10.014;2023-10-09T02:16:22;2.83;;;1.33;;
29362;SDS011;16349;53.672;10.014;2023-10-09T02:18:54;2.77;;;1.20;;
29362;SDS011;16349;53.672;10.014;2023-10-09T02:21:24;6.00;;;1.50;;
29362;SDS011;16349;53.672;10.014;2023-10-09T02:24:02;1.30;;;1.13;;
29362;SDS011;16349;53.672;10.014;2023-10-09T02:26:34;5.57;;;1.20;;
29362;SDS011;16349;53.672;10.014;2023-10-09T02:29:26;2.80;;;1.37;;
29362;SDS011;16349;53.672;10.014;2023-10-09T02:31:53;2.27;;;1.33;;
29362;SDS011;16349;53.672;10.014;2023-10-09T02:34:26;3.33;;;1.30;;
29362;SDS011;16349;53.672;10.014;2023-10-09T02:36:54;2.50;;;1.20;;
29362;SDS011;16349;53.672;10.014;2023-10-09T02:39:31;3.00;;;1.53;;
29362;SDS011;16349;53.672;10.014;2023-10-09T02:42:02;3.73;;;1.50;;
29362;SDS011;16349;53.672;10.014;2023-10-09T02:44:44;1.83;;;1.27;;
29362;SDS011;16349;53.672;10.014;2023-10-09T02:47:14;3.50;;;1.80;;
29362;SDS011;16349;53.672;10.014;2023-10-09T02:49:46;4.93;;;1.57;;
29362;SDS011;16349;53.672;10.014;2023-10-09T02:52:15;3.17;;;1.30;;
29362;SDS011;16349;53.672;10.014;2023-10-09T02:54:50;2.13;;;1.20;;
29362;SDS011;16349;53.672;10.014;2023-10-09T02:57:25;3.67;;;1.17;;
29362;SDS011;16349;53.672;10.014;2023-10-09T03:00:01;4.13;;;1.20;;
29362;SDS011;16349;53.672;10.014;2023-10-09T03:02:33;1.93;;;1.20;;
29362;SDS011;16349;53.672;10.014;2023-10-09T03:05:05;3.90;;;2.10;;
29362;SDS011;16349;53.672;10.014;2023-10-09T03:07:37;2.27;;;1.47;;
29362;SDS011;16349;53.672;10.014;2023-10-09T03:10:06;3.43;;;1.43;;
29362;SDS011;16349;53.672;10.014;2023-10-09T03:12:34;2.23;;;1.60;;
29362;SDS011;16349;53.672;10.014;2023-10-09T03:15:01;3.20;;;1.53;;
29362;SDS011;16349;53.672;10.014;2023-10-09T03:17:33;2.93;;;1.40;;
29362;SDS011;16349;53.672;10.014;2023-10-09T03:20:02;3.23;;;1.30;;
29362;SDS011;16349;53.672;10.014;2023-10-09T03:22:37;3.50;;;1.10;;
29362;SDS011;16349;53.672;10.014;2023-10-09T03:25:04;1.90;;;1.50;;
29362;SDS011;16349;53.672;10.014;2023-10-09T03:27:37;3.27;;;1.80;;
29362;SDS011;16349;53.672;10.014;2023-10-09T03:30:07;1.87;;;1.30;;
29362;SDS011;16349;53.672;10.014;2023-10-09T03:32:41;4.53;;;1.67;;
29362;SDS011;16349;53.672;10.014;2023-10-09T03:35:16;2.30;;;1.53;;
29362;SDS011;16349;53.672;10.014;2023-10-09T03:37:49;2.23;;;1.57;;
29362;SDS011;16349;53.672;10.014;2023-10-09T03:40:19;3.17;;;1.53;;
29362;SDS011;16349;53.672;10.014;2023-10-09T03:42:47;2.50;;;1.70;;
29362;SDS011;16349;53.672;10.014;2023-10-09T03:45:15;1.47;;;1.10;;
29362;SDS011;16349;53.672;10.014;2023-10-09T03:47:51;1.50;;;1.10;;
29362;SDS011;16349;53.672;10.014;2023-10-09T03:50:23;2.77;;;1.47;;
29362;SDS011;16349;53.672;10.014;2023-10-09T03:52:54;4.27;;;1.40;;
29362;SDS011;16349;53.672;10.014;2023-10-09T03:55:22;2.50;;;1.10;;
29362;SDS011;16349;53.672;10.014;2023-10-09T03:57:53;2.47;;;1.10;;
29362;SDS011;16349;53.672;10.014;2023-10-09T04:00:22;4.27;;;1.30;;
29362;SDS011;16349;53.672;10.014;2023-10-09T04:02:53;3.60;;;1.53;;
29362;SDS011;16349;53.672;10.014;2023-10-09T04:05:20;2.37;;;1.30;;
29362;SDS011;16349;53.672;10.014;2023-10-09T04:07:47;2.43;;;1.60;;
29362;SDS011;16349;53.672;10.014;2023-10-09T04:10:15;4.10;;;1.30;;
29362;SDS011;16349;53.672;10.014;2023-10-09T04:12:59;2.70;;;1.30;;
29362;SDS011;16349;53.672;10.014;2023-10-09T04:15:33;1.70;;;1.20;;
29362;SDS011;16349;53.672;10.014;2023-10-09T04:18:01;1.20;;;1.10;;
29362;SDS011;16349;53.672;10.014;2023-10-09T04:20:30;1.37;;;1.27;;
29362;SDS011;16349;53.672;10.014;2023-10-09T04:23:10;3.67;;;1.20;;
29362;SDS011;16349;53.672;10.014;2023-10-09T04:25:41;2.67;;;1.40;;
29362;SDS011;16349;53.672;10.014;2023-10-09T04:28:09;2.63;;;1.40;;
29362;SDS011;16349;53.672;10.014;2023-10-09T04:30:44;1.93;;;1.30;;
29362;SDS011;16349;53.672;10.014;2023-10-09T04:33:18;2.40;;;1.10;;
29362;SDS011;16349;53.672;10.014;2023-10-09T04:36:01;2.57;;;1.40;;
29362;SDS011;16349;53.672;10.014;2023-10-09T04:38:43;1.60;;;1.10;;
29362;SDS011;16349;53.672;10.014;2023-10-09T04:41:21;3.70;;;1.23;;
29362;SDS011;16349;53.672;10.014;2023-10-09T04:43:55;1.80;;;1.30;;
29362;SDS011;16349;53.672;10.014;2023-10-09T04:46:39;1.73;;;1.17;;
29362;SDS011;16349;53.672;10.014;2023-10-09T04:49:09;3.40;;;1.40;;
29362;SDS011;16349;53.672;10.014;2023-10-09T04:51:52;1.83;;;1.37;;
29362;SDS011;16349;53.672;10.014;2023-10-09T04:54:29;3.23;;;1.50;;
29362;SDS011;16349;53.672;10.014;2023-10-09T04:57:04;4.20;;;1.27;;
29362;SDS011;16349;53.672;10.014;2023-10-09T04:59:44;1.33;;;0.87;;
29362;SDS011;16349;53.672;10.014;2023-10-09T05:02:13;2.43;;;1.50;;
29362;SDS011;16349;53.672;10.014;2023-10-09T05:04:44;3.70;;;1.60;;
29362;SDS011;16349;53.672;10.014;2023-10-09T05:07:13;1.67;;;1.10;;
29362;SDS011;16349;53.672;10.014;2023-10-09T05:10:11;3.30;;;1.40;;
29362;SDS011;16349;53.672;10.014;2023-10-09T05:12:41;3.00;;;1.30;;
29362;SDS011;16349;53.672;10.014;2023-10-09T05:15:13;2.00;;;1.33;;
29362;SDS011;16349;53.672;10.014;2023-10-09T05:17:41;2.97;;;1.33;;
29362;SDS011;16349;53.672;10.014;2023-10-09T05:20:17;2.27;;;1.70;;
29362;SDS011;16349;53.672;10.014;2023-10-09T05:23:09;3.07;;;1.53;;
29362;SDS011;16349;53.672;10.014;2023-10-09T05:25:52;3.30;;;1.60;;
29362;SDS011;16349;53.672;10.014;2023-10-09T05:28:21;4.30;;;1.87;;
29362;SDS011;16349;53.672;10.014;2023-10-09T05:30:57;1.40;;;1.30;;
29362;SDS011;16349;53.672;10.014;2023-10-09T05:33:34;1.27;;;1.17;;
29362;SDS011;16349;53.672;10.014;2023-10-09T05:36:02;3.63;;;1.27;;
29362;SDS011;16349;53.672;10.014;2023-10-09T05:38:48;3.90;;;1.20;;
29362;SDS011;16349;53.672;10.014;2023-10-09T05:41:24;3.43;;;1.60;;
29362;SDS011;16349;53.672;10.014;2023-10-09T05:44:11;3.30;;;1.40;;
29362;SDS011;16349;53.672;10.014;2023-10-09T05:47:10;4.57;;;1.50;;
29362;SDS011;16349;53.672;10.014;2023-10-09T05:50:00;2.07;;;1.40;;
29362;SDS011;16349;53.672;10.014;2023-10-09T05:52:52;4.33;;;1.90;;
29362;SDS011;16349;53.672;10.014;2023-10-09T05:55:43;3.00;;;1.60;;
29362;SDS011;16349;53.672;10.014;2023-10-09T05:58:28;2.87;;;1.30;;
29362;SDS011;16349;53.672;10.014;2023-10-09T06:01:12;4.10;;;1.50;;
29362;SDS011;16349;53.672;10.014;2023-10-09T06:03:58;3.27;;;1.67;;
29362;SDS011;16349;53.672;10.014;2023-10-09T06:06:40;4.57;;;1.50;;
29362;SDS011;16349;53.672;10.014;2023-10-09T06:09:11;4.17;;;1.67;;
29362;SDS011;16349;53.672;10.014;2023-10-09T06:12:05;2.73;;;1.90;;
29362;SDS011;16349;53.672;10.014;2023-10-09T06:15:14;2.17;;;1.30;;
29362;SDS011;16349;53.672;10.014;2023-10-09T06:17:55;2.63;;;1.60;;
29362;SDS011;16349;53.672;10.014;2023-10-09T06:20:43;5.07;;;1.60;;
29362;SDS011;16349;53.672;10.014;2023-10-09T06:23:23;2.73;;;1.50;;
29362;SDS011;16349;53.672;10.014;2023-10-09T06:26:11;4.10;;;2.07;;
29362;SDS011;16349;53.672;10.014;2023-10-09T06:28:49;6.00;;;1.23;;
29362;SDS011;16349;53.672;10.014;2023-10-09T06:31:36;4.60;;;1.87;;
29362;SDS011;16349;53.672;10.014;2023-10-09T06:34:22;2.70;;;1.60;;
29362;SDS011;16349;53.672;10.014;2023-10-09T06:36:59;3.40;;;1.70;;
29362;SDS011;16349;53.672;10.014;2023-10-09T06:39:34;1.70;;;1.60;;
29362;SDS011;16349;53.672;10.014;2023-10-09T06:42:18;5.03;;;1.87;;
29362;SDS011;16349;53.672;10.014;2023-10-09T06:45:02;2.77;;;1.90;;
29362;SDS011;16349;53.672;10.014;2023-10-09T06:47:31;4.23;;;1.80;;
29362;SDS011;16349;53.672;10.014;2023-10-09T06:50:06;2.63;;;1.70;;
29362;SDS011;16349;53.672;10.014;2023-10-09T06:52:52;1.97;;;1.70;;
29362;SDS011;16349;53.672;10.014;2023-10-09T06:55:39;3.23;;;1.90;;
29362;SDS011;16349;53.672;10.014;2023-10-09T06:58:14;2.30;;;1.67;;
29362;SDS011;16349;53.672;10.014;2023-10-09T07:00:48;4.17;;;2.00;;
29362;SDS011;16349;53.672;10.014;2023-10-09T07:03:38;3.97;;;1.70;;
29362;SDS011;16349;53.672;10.014;2023-10-09T07:06:17;5.63;;;1.93;;
29362;SDS011;16349;53.672;10.014;2023-10-09T07:08:50;2.80;;;2.00;;
29362;SDS011;16349;53.672;10.014;2023-10-09T07:11:41;3.73;;;1.90;;
29362;SDS011;16349;53.672;10.014;2023-10-09T07:14:23;5.43;;;2.20;;
29362;SDS011;16349;53.672;10.014;2023-10-09T07:17:13;2.33;;;1.87;;
29362;SDS011;16349;53.672;10.014;2023-10-09T07:19:48;3.60;;;1.97;;
29362;SDS011;16349;53.672;10.014;2023-10-09T07:22:33;3.00;;;2.63;;
29362;SDS011;16349;53.672;10.014;2023-10-09T07:25:06;2.23;;;2.03;;
29362;SDS011;16349;53.672;10.014;2023-10-09T07:27:53;4.67;;;2.00;;
29362;SDS011;16349;53.672;10.014;2023-10-09T07:30:21;3.67;;;2.10;;
29362;SDS011;16349;53.672;10.014;2023-10-09T07:33:04;3.73;;;2.50;;
29362;SDS011;16349;53.672;10.014;2023-10-09T07:35:42;2.17;;;1.87;;
29362;SDS011;16349;53.672;10.014;2023-10-09T07:38:16;3.10;;;2.37;;
29362;SDS011;16349;53.672;10.014;2023-10-09T07:40:46;2.80;;;2.27;;
29362;SDS011;16349;53.672;10.014;2023-10-09T07:43:21;3.30;;;2.30;;
29362;SDS011;16349;53.672;10.014;2023-10-09T07:45:52;2.33;;;1.83;;
29362;SDS011;16349;53.672;10.014;2023-10-09T07:48:37;2.63;;;2.07;;
29362;SDS011;16349;53.672;10.014;2023-10-09T07:51:14;2.63;;;2.40;;
29362;SDS011;16349;53.672;10.014;2023-10-09T07:53:41;3.00;;;2.10;;
29362;SDS011;16349;53.672;10.014;2023-10-09T07:56:11;2.70;;;2.10;;
29362;SDS011;16349;53.672;10.014;2023-10-09T07:58:39;2.57;;;2.37;;
29362;SDS011;16349;53.672;10.014;2023-10-09T08:01:13;2.90;;;2.20;;
29362;SDS011;16349;53.672;10.014;2023-10-09T08:03:48;4.13;;;2.43;;
29362;SDS011;16349;53.672;10.014;2023-10-09T08:06:23;4.00;;;2.70;;
29362;SDS011;16349;53.672;10.014;2023-10-09T08:09:08;2.67;;;2.47;;
29362;SDS011;16349;53.672;10.014;2023-10-09T08:11:54;2.63;;;2.43;;
29362;SDS011;16349;53.672;10.014;2023-10-09T08:14:41;2.53;;;2.10;;
29362;SDS011;16349;53.672;10.014;2023-10-09T08:17:10;3.20;;;2.90;;
29362;SDS011;16349;53.672;10.014;2023-10-09T08:19:39;3.43;;;2.80;;
29362;SDS011;16349;53.672;10.014;2023-10-09T08:22:20;3.57;;;3.03;;
29362;SDS011;16349;53.672;10.014;2023-10-09T08:25:05;3.23;;;2.93;;
29362;SDS011;16349;53.672;10.014;2023-10-09T08:27:34;5.20;;;3.07;;
29362;SDS011;16349;53.672;10.014;2023-10-09T08:30:19;4.10;;;3.20;;
29362;SDS011;16349;53.672;10.014;2023-10-09T08:32:53;6.33;;;3.20;;
29362;SDS011;16349;53.672;10.014;2023-10-09T08:35:27;4.40;;;3.40;;
29362;SDS011;16349;53.672;10.014;2023-10-09T08:37:55;3.63;;;3.23;;
29362;SDS011;16349;53.672;10.014;2023-10-09T08:40:28;3.37;;;3.07;;
29362;SDS011;16349;53.672;10.014;2023-10-09T08:43:07;3.97;;;3.40;;
29362;SDS011;16349;53.672;10.014;2023-10-09T08:45:36;3.50;;;3.20;;
29362;SDS011;16349;53.672;10.014;2023-10-09T08:48:06;5.33;;;3.23;;
29362;SDS011;16349;53.672;10.014;2023-10-09T08:50:40;3.40;;;3.10;;
29362;SDS011;16349;53.672;10.014;2023-10-09T08:53:08;3.93;;;3.13;;
29362;SDS011;16349;53.672;10.014;2023-10-09T08:55:36;3.93;;;2.93;;
29362;SDS011;16349;53.672;10.014;2023-10-09T08:58:05;3.63;;;3.30;;
29362;SDS011;16349;53.672;10.014;2023-10-09T09:00:38;4.07;;;3.13;;
29362;SDS011;16349;53.672;10.014;2023-10-09T09:03:11;3.33;;;3.03;;
29362;SDS011;16349;53.672;10.014;2023-10-09T09:05:37;4.43;;;3.47;;
29362;SDS011;16349;53.672;10.014;2023-10-09T09:08:05;2.57;;;2.37;;
29362;SDS011;16349;53.672;10.014;2023-10-09T09:10:50;3.43;;;2.90;;
29362;SDS011;16349;53.672;10.014;2023-10-09T09:13:24;2.77;;;2.57;;
29362;SDS011;16349;53.672;10.014;2023-10-09T09:15:57;2.77;;;2.57;;
29362;SDS011;16349;53.672;10.014;2023-10-09T09:18:24;2.57;;;2.37;;
29362;SDS011;16349;53.672;10.014;2023-10-09T09:20:57;2.93;;;2.73;;
29362;SDS011;16349;53.672;10.014;2023-10-09T09:23:24;3.07;;;2.70;;
29362;SDS011;16349;53.672;10.014;2023-10-09T09:25:52;2.67;;;2.47;;
29362;SDS011;16349;53.672;10.014;2023-10-09T09:28:26;2.50;;;2.30;;
29362;SDS011;16349;53.672;10.014;2023-10-09T09:31:06;3.00;;;2.80;;
29362;SDS011;16349;53.672;10.014;2023-10-09T09:33:39;2.43;;;2.27;;
29362;SDS011;16349;53.672;10.014;2023-10-09T09:36:08;2.53;;;2.33;;
29362;SDS011;16349;53.672;10.014;2023-10-09T09:38:36;2.53;;;2.30;;
29362;SDS011;16349;53.672;10.014;2023-10-09T09:41:14;2.80;;;2.60;;
29362;SDS011;16349;53.672;10.014;2023-10-09T09:43:51;2.53;;;2.33;;
29362;SDS011;16349;53.672;10.014;2023-10-09T09:46:22;2.60;;;2.40;;
29362;SDS011;16349;53.672;10.014;2023-10-09T09:48:57;2.73;;;2.50;;
29362;SDS011;16349;53.672;10.014;2023-10-09T09:51:29;2.83;;;2.63;;
29362;SDS011;16349;53.672;10.014;2023-10-09T09:53:56;2.93;;;2.50;;
29362;SDS011;16349;53.672;10.014;2023-10-09T09:56:24;2.67;;;2.47;;
29362;SDS011;16349;53.672;10.014;2023-10-09T09:58:52;3.30;;;2.70;;
29362;SDS011;16349;53.672;10.014;2023-10-09T10:01:22;4.03;;;2.60;;
29362;SDS011;16349;53.672;10.014;2023-10-09T10:03:53;3.27;;;2.70;;
29362;SDS011;16349;53.672;10.014;2023-10-09T10:06:22;2.60;;;2.40;;
29362;SDS011;16349;53.672;10.014;2023-10-09T10:08:52;2.47;;;2.27;;
29362;SDS011;16349;53.672;10.014;2023-10-09T10:14:10;2.50;;;2.30;;
29362;SDS011;16349;53.672;10.014;2023-10-09T10:17:02;2.20;;;2.10;;
29362;SDS011;16349;53.672;10.014;2023-10-09T10:22:51;2.03;;;1.93;;
29362;SDS011;16349;53.672;10.014;2023-10-09T10:25:33;2.33;;;2.00;;
29362;SDS011;16349;53.672;10.014;2023-10-09T10:28:15;2.50;;;2.30;;
29362;SDS011;16349;53.672;10.014;2023-10-09T10:30:54;2.80;;;2.27;;
29362;SDS011;16349;53.672;10.014;2023-10-09T10:33:25;2.00;;;1.90;;
29362;SDS011;16349;53.672;10.014;2023-10-09T10:35:53;2.10;;;1.90;;
29362;SDS011;16349;53.672;10.014;2023-10-09T10:38:21;2.60;;;2.40;;
29362;SDS011;16349;53.672;10.014;2023-10-09T10:43:42;1.90;;;1.70;;
29362;SDS011;16349;53.672;10.014;2023-10-09T10:46:26;1.73;;;1.63;;
29362;SDS011;16349;53.672;10.014;2023-10-09T10:49:07;2.23;;;2.07;;
29362;SDS011;16349;53.672;10.014;2023-10-09T10:51:46;1.90;;;1.80;;
29362;SDS011;16349;53.672;10.014;2023-10-09T10:54:20;1.70;;;1.60;;
29362;SDS011;16349;53.672;10.014;2023-10-09T10:57:13;1.97;;;1.83;;
29362;SDS011;16349;53.672;10.014;2023-10-09T10:59:56;1.70;;;1.60;;
29362;SDS011;16349;53.672;10.014;2023-10-09T11:03:00;1.50;;;1.40;;
29362;SDS011;16349;53.672;10.014;2023-10-09T11:05:41;1.57;;;1.47;;
29362;SDS011;16349;53.672;10.014;2023-10-09T11:08:15;1.50;;;1.20;;
29362;SDS011;16349;53.672;10.014;2023-10-09T11:10:47;1.90;;;1.30;;
29362;SDS011;16349;53.672;10.014;2023-10-09T11:13:22;2.00;;;1.80;;
29362;SDS011;16349;53.672;10.014;2023-10-09T11:15:55;5.20;;;1.43;;
29362;SDS011;16349;53.672;10.014;2023-10-09T11:18:41;1.73;;;1.57;;
29362;SDS011;16349;53.672;10.014;2023-10-09T11:21:13;1.27;;;1.17;;
29362;SDS011;16349;53.672;10.014;2023-10-09T11:23:57;1.63;;;1.53;;
29362;SDS011;16349;53.672;10.014;2023-10-09T11:26:24;3.73;;;1.40;;
29362;SDS011;16349;53.672;10.014;2023-10-09T11:31:42;1.50;;;1.40;;
29362;SDS011;16349;53.672;10.014;2023-10-09T11:34:26;1.27;;;1.20;;
29362;SDS011;16349;53.672;10.014;2023-10-09T11:36:57;1.50;;;1.40;;
29362;SDS011;16349;53.672;10.014;2023-10-09T11:39:25;1.60;;;1.50;;
29362;SDS011;16349;53.672;10.014;2023-10-09T11:42:04;1.50;;;1.40;;
29362;SDS011;16349;53.672;10.014;2023-10-09T11:44:35;1.60;;;1.50;;
29362;SDS011;16349;53.672;10.014;2023-10-09T11:47:04;1.33;;;1.23;;
29362;SDS011;16349;53.672;10.014;2023-10-09T11:49:50;1.53;;;1.43;;
29362;SDS011;16349;53.672;10.014;2023-10-09T11:52:31;1.47;;;1.37;;
29362;SDS011;16349;53.672;10.014;2023-10-09T11:55:02;1.67;;;1.57;;
29362;SDS011;16349;53.672;10.014;2023-10-09T11:57:31;1.43;;;1.33;;
29362;SDS011;16349;53.672;10.014;2023-10-09T11:59:59;1.40;;;1.30;;
29362;SDS011;16349;53.672;10.014;2023-10-09T12:02:32;1.77;;;1.60;;
29362;SDS011;16349;53.672;10.014;2023-10-09T12:05:10;1.60;;;1.50;;
29362;SDS011;16349;53.672;10.014;2023-10-09T12:07:42;1.87;;;1.77;;
29362;SDS011;16349;53.672;10.014;2023-10-09T12:10:10;1.80;;;1.70;;
29362;SDS011;16349;53.672;10.014;2023-10-09T12:12:39;2.30;;;2.10;;
29362;SDS011;16349;53.672;10.014;2023-10-09T12:15:11;2.30;;;2.10;;
29362;SDS011;16349;53.672;10.014;2023-10-09T12:17:42;2.30;;;2.10;;
29362;SDS011;16349;53.672;10.014;2023-10-09T12:20:13;2.07;;;1.87;;
29362;SDS011;16349;53.672;10.014;2023-10-09T12:22:55;1.63;;;1.53;;
29362;SDS011;16349;53.672;10.014;2023-10-09T12:25:23;1.97;;;1.87;;
29362;SDS011;16349;53.672;10.014;2023-10-09T12:27:51;3.00;;;1.90;;
29362;SDS011;16349;53.672;10.014;2023-10-09T12:30:21;2.10;;;1.53;;
29362;SDS011;16349;53.672;10.014;2023-10-09T12:32:52;2.00;;;1.90;;
29362;SDS011;16349;53.672;10.014;2023-10-09T12:35:21;1.73;;;1.63;;
29362;SDS011;16349;53.672;10.014;2023-10-09T12:37:50;2.60;;;1.57;;
29362;SDS011;16349;53.672;10.014;2023-10-09T12:40:17;1.70;;;1.60;;
29362;SDS011;16349;53.672;10.014;2023-10-09T12:42:49;1.70;;;1.60;;
29362;SDS011;16349;53.672;10.014;2023-10-09T12:45:17;2.13;;;1.90;;
29362;SDS011;16349;53.672;10.014;2023-10-09T12:47:51;2.13;;;1.80;;
29362;SDS011;16349;53.672;10.014;2023-10-09T12:50:20;2.10;;;2.00;;
29362;SDS011;16349;53.672;10.014;2023-10-09T12:52:53;2.13;;;2.00;;
29362;SDS011;16349;53.672;10.014;2023-10-09T12:55:21;3.10;;;2.20;;
29362;SDS011;16349;53.672;10.014;2023-10-09T12:57:57;2.00;;;1.90;;
29362;SDS011;16349;53.672;10.014;2023-10-09T13:00:31;2.10;;;2.00;;
29362;SDS011;16349;53.672;10.014;2023-10-09T13:03:03;1.80;;;1.70;;
29362;SDS011;16349;53.672;10.014;2023-10-09T13:05:46;2.00;;;1.90;;
29362;SDS011;16349;53.672;10.014;2023-10-09T13:08:21;2.03;;;1.93;;
29362;SDS011;16349;53.672;10.014;2023-10-09T13:10:50;2.20;;;2.10;;
29362;SDS011;16349;53.672;10.014;2023-10-09T13:13:27;2.13;;;2.03;;
29362;SDS011;16349;53.672;10.014;2023-10-09T13:16:10;1.70;;;1.60;;
29362;SDS011;16349;53.672;10.014;2023-10-09T13:18:39;2.00;;;1.90;;
29362;SDS011;16349;53.672;10.014;2023-10-09T13:21:08;2.27;;;2.07;;
29362;SDS011;16349;53.672;10.014;2023-10-09T13:23:35;1.90;;;1.80;;
29362;SDS011;16349;53.672;10.014;2023-10-09T13:26:07;1.63;;;1.53;;
29362;SDS011;16349;53.672;10.014;2023-10-09T13:28:44;1.87;;;1.77;;
29362;SDS011;16349;53.672;10.014;2023-10-09T13:31:12;2.47;;;1.90;;
29362;SDS011;16349;53.672;10.014;2023-10-09T13:33:40;2.10;;;1.93;;
29362;SDS011;16349;53.672;10.014;2023-10-09T13:36:09;4.20;;;2.60;;
29362;SDS011;16349;53.672;10.014;2023-10-09T13:38:42;2.70;;;2.50;;
29362;SDS011;16349;53.672;10.014;2023-10-09T13:41:09;1.90;;;1.80;;
29362;SDS011;16349;53.672;10.014;2023-10-09T13:43:39;2.07;;;1.97;;
29362;SDS011;16349;53.672;10.014;2023-10-09T13:46:08;2.40;;;2.20;;
29362;SDS011;16349;53.672;10.014;2023-10-09T13:48:37;2.60;;;2.40;;
29362;SDS011;16349;53.672;10.014;2023-10-09T13:51:06;2.40;;;2.20;;
29362;SDS011;16349;53.672;10.014;2023-10-09T13:53:39;2.60;;;2.50;;
29362;SDS011;16349;53.672;10.014;2023-10-09T13:56:11;2.67;;;2.47;;
29362;SDS011;16349;53.672;10.014;2023-10-09T13:58:44;2.20;;;2.10;;
29362;SDS011;16349;53.672;10.014;2023-10-09T14:01:16;2.73;;;2.53;;
29362;SDS011;16349;53.672;10.014;2023-10-09T14:03:55;2.90;;;2.53;;
29362;SDS011;16349;53.672;10.014;2023-10-09T14:06:24;2.93;;;2.73;;
29362;SDS011;16349;53.672;10.014;2023-10-09T14:08:58;2.63;;;2.43;;
29362;SDS011;16349;53.672;10.014;2023-10-09T14:11:28;2.87;;;2.67;;
29362;SDS011;16349;53.672;10.014;2023-10-09T14:13:56;2.83;;;2.63;;
29362;SDS011;16349;53.672;10.014;2023-10-09T14:16:25;3.00;;;2.70;;
29362;SDS011;16349;53.672;10.014;2023-10-09T14:18:54;3.00;;;2.80;;
29362;SDS011;16349;53.672;10.014;2023-10-09T14:21:25;3.20;;;3.00;;
29362;SDS011;16349;53.672;10.014;2023-10-09T14:23:55;2.97;;;2.77;;
29362;SDS011;16349;53.672;10.014;2023-10-09T14:26:26;3.33;;;3.03;;
29362;SDS011;16349;53.672;10.014;2023-10-09T14:28:54;4.33;;;4.03;;
29362;SDS011;16349;53.672;10.014;2023-10-09T14:31:23;3.50;;;3.20;;
29362;SDS011;16349;53.672;10.014;2023-10-09T14:33:54;3.60;;;3.40;;
29362;SDS011;16349;53.672;10.014;2023-10-09T14:36:21;3.43;;;3.10;;
29362;SDS011;16349;53.672;10.014;2023-10-09T14:38:56;3.60;;;3.30;;
29362;SDS011;16349;53.672;10.014;2023-10-09T14:41:23;3.63;;;3.33;;
29362;SDS011;16349;53.672;10.014;2023-10-09T14:43:50;4.37;;;3.97;;
29362;SDS011;16349;53.672;10.014;2023-10-09T14:46:18;4.77;;;3.87;;
29362;SDS011;16349;53.672;10.014;2023-10-09T14:48:50;3.70;;;3.50;;
29362;SDS011;16349;53.672;10.014;2023-10-09T14:51:18;3.90;;;3.60;;
29362;SDS011;16349;53.672;10.014;2023-10-09T14:53:52;5.07;;;4.67;;
29362;SDS011;16349;53.672;10.014;2023-10-09T14:56:24;4.30;;;4.00;;
29362;SDS011;16349;53.672;10.014;2023-10-09T14:58:56;4.30;;;3.90;;
29362;SDS011;16349;53.672;10.014;2023-10-09T15:01:24;4.10;;;3.80;;
29362;SDS011;16349;53.672;10.014;2023-10-09T15:03:54;4.33;;;3.93;;
29362;SDS011;16349;53.672;10.014;2023-10-09T15:06:22;4.90;;;4.50;;
29362;SDS011;16349;53.672;10.014;2023-10-09T15:08:53;4.60;;;4.20;;
29362;SDS011;16349;53.672;10.014;2023-10-09T15:11:25;4.47;;;4.07;;
29362;SDS011;16349;53.672;10.014;2023-10-09T15:13:53;5.47;;;4.97;;
29362;SDS011;16349;53.672;10.014;2023-10-09T15:16:23;5.03;;;4.63;;
29362;SDS011;16349;53.672;10.014;2023-10-09T15:18:52;5.23;;;4.83;;
29362;SDS011;16349;53.672;10.014;2023-10-09T15:21:28;5.37;;;4.87;;
29362;SDS011;16349;53.672;10.014;2023-10-09T15:23:57;5.37;;;4.87;;
29362;SDS011;16349;53.672;10.014;2023-10-09T15:26:26;5.40;;;4.90;;